Eleva, Wisconsin
Current Conditions -  °F | °C
As of 7:56 PM on Monday 24 Nov 2014 (Local Time) from KEAU Reporting Station
Overcast Overcast  
Wind Chill:   Ceiling: 2100
Heat Index: 22°   Visibility: 10mi
Dew Point: 14°   Wind: 18mph
Humidity: 72%   Direction: 320°NW
Pressure: 29.68"   Gusts: 23mph
Location:  44.58°N, 91.47°W
Report Text: KEAU 250156Z 32016G20KT 10SM OVC021 M06/M10 A2968 RMK AO2 SLP064 T10561100
Loading
Personal Weather Stations






























Interactive Weather Map New forecast layout! Learn more

10-Day Weather Forecast

Advertisements
Track Severe Weather on mobile